Time;durP1;ratioP1;P1;durP2;ratioP2;P2;SDS_P1;SDS_P2;PMS_P1;PMS_P2;Temp;Humidity;BMP_temperature;BMP_pressure;BME280_temperature;BME280_humidity;BME280_pressure;Samples;Min_cycle;Max_cycle;Signal;HPM_P1;HPM_P2
2021/11/23 00:00:49;;;;;;;2.90;2.70;;;;;;;;;;5054200;28;20260;-81
2021/11/23 00:03:19;;;;;;;4.30;3.00;;;;;;;;;;5054449;28;20204;-81
2021/11/23 00:05:47;;;;;;;3.60;3.10;;;;;;;;;;5053308;28;20233;-80
2021/11/23 00:08:17;;;;;;;3.25;2.83;;;;;;;;;;5053570;28;20221;-81
2021/11/23 00:10:45;;;;;;;2.72;2.53;;;;;;;;;;5053843;28;20273;-80
2021/11/23 00:13:15;;;;;;;2.85;2.33;;;;;;;;;;5054316;28;20243;-80
2021/11/23 00:15:45;;;;;;;1.85;1.75;;;;;;;;;;5054190;28;20267;-80
2021/11/23 00:18:17;;;;;;;2.53;2.33;;;;;;;;;;5053610;28;20309;-80
2021/11/23 00:20:47;;;;;;;2.03;1.92;;;;;;;;;;5053122;28;20293;-80
2021/11/23 00:23:15;;;;;;;2.45;2.25;;;;;;;;;;5053770;28;20202;-79
2021/11/23 00:25:43;;;;;;;2.08;1.95;;;;;;;;;;5053957;28;20277;-81
2021/11/23 00:28:11;;;;;;;2.97;2.78;;;;;;;;;;5053555;28;20734;-82
2021/11/23 00:30:40;;;;;;;3.05;2.72;;;;;;;;;;5053497;28;20289;-81
2021/11/23 00:33:09;;;;;;;2.60;2.40;;;;;;;;;;5053787;28;20675;-80
2021/11/23 00:35:38;;;;;;;2.50;2.30;;;;;;;;;;5053588;28;20273;-80
2021/11/23 00:38:06;;;;;;;2.92;2.72;;;;;;;;;;5053217;28;20316;-80
2021/11/23 00:40:33;;;;;;;3.08;2.88;;;;;;;;;;5053306;28;20273;-80
2021/11/23 00:43:04;;;;;;;3.80;3.30;;;;;;;;;;5053407;28;20197;-80
2021/11/23 00:45:33;;;;;;;4.57;3.65;;;;;;;;;;5053143;28;20208;-80
2021/11/23 00:48:02;;;;;;;3.15;2.88;;;;;;;;;;5053082;28;20327;-80
2021/11/23 00:50:32;;;;;;;5.82;3.55;;;;;;;;;;5053335;28;20280;-80
2021/11/23 00:53:00;;;;;;;3.92;3.42;;;;;;;;;;5053577;28;20218;-81
2021/11/23 00:55:28;;;;;;;2.97;2.78;;;;;;;;;;5053154;28;20636;-79
2021/11/23 00:57:56;;;;;;;3.03;2.78;;;;;;;;;;5053568;28;20232;-81
2021/11/23 01:00:24;;;;;;;2.70;2.50;;;;;;;;;;5053487;28;20228;-79
2021/11/23 01:02:52;;;;;;;3.40;2.88;;;;;;;;;;5053037;28;20400;-80
2021/11/23 01:05:20;;;;;;;2.97;2.70;;;;;;;;;;5053507;28;20217;-80
2021/11/23 01:07:49;;;;;;;2.20;2.00;;;;;;;;;;5052932;28;20260;-80
2021/11/23 01:10:17;;;;;;;2.15;2.05;;;;;;;;;;5052977;28;20221;-81
2021/11/23 01:12:44;;;;;;;2.72;2.53;;;;;;;;;;5053156;28;20197;-81
2021/11/23 01:15:12;;;;;;;2.72;2.53;;;;;;;;;;5053515;28;20757;-80
2021/11/23 01:17:40;;;;;;;3.20;2.90;;;;;;;;;;5053046;28;20260;-80
2021/11/23 01:20:11;;;;;;;4.00;3.30;;;;;;;;;;5052644;28;20663;-80
2021/11/23 01:22:41;;;;;;;3.50;3.20;;;;;;;;;;5052908;28;20668;-81
2021/11/23 01:25:11;;;;;;;3.22;2.92;;;;;;;;;;5053084;28;20213;-80
2021/11/23 01:27:38;;;;;;;3.60;3.30;;;;;;;;;;5052695;28;20904;-79
2021/11/23 01:30:08;;;;;;;4.78;4.38;;;;;;;;;;5052687;28;20647;-80
2021/11/23 01:32:37;;;;;;;4.28;3.20;;;;;;;;;;5053183;28;20189;-79
2021/11/23 01:35:05;;;;;;;3.28;2.97;;;;;;;;;;5052694;28;20188;-80
2021/11/23 01:37:33;;;;;;;4.10;3.70;;;;;;;;;;5052431;28;20307;-81
2021/11/23 01:40:00;;;;;;;4.97;3.72;;;;;;;;;;5052683;28;20205;-80
2021/11/23 01:42:29;;;;;;;3.17;2.88;;;;;;;;;;5052823;28;20741;-80
2021/11/23 01:44:57;;;;;;;3.58;3.28;;;;;;;;;;5052826;28;20602;-81
2021/11/23 01:47:25;;;;;;;3.10;2.60;;;;;;;;;;5052779;28;20683;-80
2021/11/23 01:49:52;;;;;;;2.70;2.50;;;;;;;;;;5052618;28;20198;-80
2021/11/23 01:52:20;;;;;;;2.75;2.55;;;;;;;;;;5052488;28;20690;-80
2021/11/23 01:54:48;;;;;;;3.17;2.88;;;;;;;;;;5052381;28;20251;-80
2021/11/23 01:57:16;;;;;;;2.92;2.53;;;;;;;;;;5056358;28;20225;-81
2021/11/23 01:59:46;;;;;;;2.40;2.22;;;;;;;;;;5056571;28;20196;-80
2021/11/23 02:02:14;;;;;;;3.70;3.25;;;;;;;;;;5056723;28;20217;-82
2021/11/23 02:04:42;;;;;;;2.83;2.60;;;;;;;;;;5056647;28;20663;-81
2021/11/23 02:07:13;;;;;;;3.72;3.38;;;;;;;;;;5056864;28;20230;-81
2021/11/23 02:09:40;;;;;;;4.50;3.65;;;;;;;;;;5057154;28;20190;-80
2021/11/23 02:12:09;;;;;;;6.28;4.38;;;;;;;;;;5056547;28;20240;-81
2021/11/23 02:14:38;;;;;;;3.42;3.13;;;;;;;;;;5056711;28;20202;-80
2021/11/23 02:17:07;;;;;;;2.88;2.55;;;;;;;;;;5055888;28;20267;-80
2021/11/23 02:19:36;;;;;;;3.08;2.88;;;;;;;;;;5056836;28;20221;-81
2021/11/23 02:22:05;;;;;;;3.08;2.78;;;;;;;;;;5056351;28;20311;-81
2021/11/23 02:24:33;;;;;;;3.67;3.17;;;;;;;;;;5056222;28;20652;-81
2021/11/23 02:27:01;;;;;;;3.92;3.10;;;;;;;;;;5056003;28;20245;-80
2021/11/23 02:29:29;;;;;;;6.03;4.97;;;;;;;;;;5056420;28;20205;-81
2021/11/23 02:31:56;;;;;;;3.33;3.03;;;;;;;;;;5056302;28;20237;-81
2021/11/23 02:34:24;;;;;;;3.75;3.08;;;;;;;;;;5055419;28;20205;-80
2021/11/23 02:36:52;;;;;;;4.07;3.78;;;;;;;;;;5055532;28;20297;-80
2021/11/23 02:39:21;;;;;;;4.50;4.07;;;;;;;;;;5055612;28;20285;-81
2021/11/23 02:41:49;;;;;;;2.97;2.78;;;;;;;;;;5055870;28;20552;-81
2021/11/23 02:44:17;;;;;;;3.58;3.20;;;;;;;;;;5055698;28;20285;-82
2021/11/23 02:46:45;;;;;;;3.58;3.25;;;;;;;;;;5055572;28;20618;-80
2021/11/23 02:49:13;;;;;;;4.30;3.58;;;;;;;;;;5055163;28;20647;-80
2021/11/23 02:51:42;;;;;;;3.22;2.70;;;;;;;;;;5055704;28;20233;-80
2021/11/23 02:54:10;;;;;;;5.47;2.72;;;;;;;;;;5055489;28;20182;-80
2021/11/23 02:56:39;;;;;;;3.78;3.47;;;;;;;;;;5054836;28;20300;-80
2021/11/23 02:59:07;;;;;;;4.00;3.60;;;;;;;;;;5055224;28;20607;-81
2021/11/23 03:01:34;;;;;;;3.80;3.40;;;;;;;;;;5055527;28;20300;-81
2021/11/23 03:04:02;;;;;;;3.63;3.33;;;;;;;;;;5055548;28;20241;-80
2021/11/23 03:06:30;;;;;;;5.18;4.65;;;;;;;;;;5055229;28;20255;-80
2021/11/23 03:08:57;;;;;;;5.20;4.03;;;;;;;;;;5054471;28;20266;-80
2021/11/23 03:11:25;;;;;;;3.75;3.45;;;;;;;;;;5055034;28;20233;-80
2021/11/23 03:13:54;;;;;;;3.38;3.08;;;;;;;;;;5055221;28;20245;-80
2021/11/23 03:16:22;;;;;;;3.50;3.20;;;;;;;;;;5054212;28;20229;-80
2021/11/23 03:18:49;;;;;;;4.35;3.85;;;;;;;;;;5053811;28;20237;-80
2021/11/23 03:21:17;;;;;;;5.32;3.95;;;;;;;;;;5053746;28;20740;-80
2021/11/23 03:23:44;;;;;;;3.95;3.38;;;;;;;;;;5054574;28;20755;-80
2021/11/23 03:26:12;;;;;;;3.60;3.20;;;;;;;;;;5054812;28;20642;-80
2021/11/23 03:28:39;;;;;;;3.58;3.33;;;;;;;;;;5054324;28;20280;-80
2021/11/23 03:31:08;;;;;;;3.53;3.22;;;;;;;;;;5054897;28;20186;-80
2021/11/23 03:33:36;;;;;;;5.75;4.25;;;;;;;;;;5054574;28;20233;-80
2021/11/23 03:36:04;;;;;;;3.47;3.17;;;;;;;;;;5054686;28;20250;-81
2021/11/23 03:38:32;;;;;;;5.13;4.63;;;;;;;;;;5054036;28;20669;-80
2021/11/23 03:40:59;;;;;;;3.78;3.47;;;;;;;;;;5054220;28;20202;-80
2021/11/23 03:43:27;;;;;;;4.22;3.83;;;;;;;;;;5054134;28;20316;-80
2021/11/23 03:45:55;;;;;;;4.90;4.40;;;;;;;;;;5054226;28;20722;-80
2021/11/23 03:48:24;;;;;;;4.95;4.45;;;;;;;;;;5053956;28;20762;-80
2021/11/23 03:50:51;;;;;;;7.03;4.80;;;;;;;;;;5054749;28;20217;-81
2021/11/23 03:53:19;;;;;;;4.40;3.53;;;;;;;;;;5054312;28;20631;-80
2021/11/23 03:55:50;;;;;;;4.18;3.50;;;;;;;;;;5054308;28;20622;-80
2021/11/23 03:58:18;;;;;;;4.75;4.35;;;;;;;;;;5053677;28;20281;-80
2021/11/23 04:00:46;;;;;;;4.82;4.32;;;;;;;;;;5053763;28;20217;-81
2021/11/23 04:03:13;;;;;;;4.22;3.83;;;;;;;;;;5053482;28;20304;-80
2021/11/23 04:05:42;;;;;;;4.28;3.40;;;;;;;;;;5053969;28;20275;-80
2021/11/23 04:08:11;;;;;;;3.60;3.30;;;;;;;;;;5053847;28;20308;-80
2021/11/23 04:10:39;;;;;;;3.22;2.92;;;;;;;;;;5053713;28;20237;-81
2021/11/23 04:13:07;;;;;;;4.32;3.20;;;;;;;;;;5054015;28;20668;-81
2021/11/23 04:15:35;;;;;;;3.42;3.13;;;;;;;;;;5053705;28;20217;-80
2021/11/23 04:18:03;;;;;;;3.55;3.10;;;;;;;;;;5052979;28;20228;-81
2021/11/23 04:20:31;;;;;;;4.22;3.83;;;;;;;;;;5052733;28;20232;-80
2021/11/23 04:23:00;;;;;;;3.72;3.40;;;;;;;;;;5053976;28;20705;-80
2021/11/23 04:25:28;;;;;;;3.47;3.10;;;;;;;;;;5053954;28;20319;-82
2021/11/23 04:27:56;;;;;;;5.05;4.60;;;;;;;;;;5053681;28;20253;-81
2021/11/23 04:30:24;;;;;;;4.68;4.28;;;;;;;;;;5053968;28;20197;-80
2021/11/23 04:32:52;;;;;;;5.38;4.38;;;;;;;;;;5053691;28;20221;-80
2021/11/23 04:35:20;;;;;;;3.72;3.42;;;;;;;;;;5053713;28;20289;-80
2021/11/23 04:37:48;;;;;;;3.45;3.25;;;;;;;;;;5053258;28;20257;-80
2021/11/23 04:40:19;;;;;;;5.03;3.90;;;;;;;;;;5053411;28;20194;-80
2021/11/23 04:42:46;;;;;;;3.53;3.22;;;;;;;;;;5053642;28;20182;-80
2021/11/23 04:45:15;;;;;;;3.80;3.40;;;;;;;;;;5053473;28;20237;-81
2021/11/23 04:47:43;;;;;;;5.22;4.72;;;;;;;;;;5053120;28;20265;-81
2021/11/23 04:50:12;;;;;;;4.18;3.83;;;;;;;;;;5053436;28;20259;-80
2021/11/23 04:52:40;;;;;;;4.47;4.07;;;;;;;;;;5053658;28;20185;-81
2021/11/23 04:55:09;;;;;;;4.50;4.10;;;;;;;;;;5053532;28;20193;-80
2021/11/23 04:57:39;;;;;;;4.55;3.08;;;;;;;;;;5052504;28;20214;-80
2021/11/23 05:00:10;;;;;;;3.97;3.42;;;;;;;;;;5053253;28;20221;-80
2021/11/23 05:02:38;;;;;;;4.18;3.88;;;;;;;;;;5053169;28;20212;-80
2021/11/23 05:05:07;;;;;;;4.00;3.67;;;;;;;;;;5053201;28;20638;-80
2021/11/23 05:07:35;;;;;;;4.15;3.78;;;;;;;;;;5053143;28;20257;-81
2021/11/23 05:10:02;;;;;;;5.13;4.03;;;;;;;;;;5053386;28;20190;-81
2021/11/23 05:12:30;;;;;;;4.10;3.75;;;;;;;;;;5053040;28;20595;-80
2021/11/23 05:14:59;;;;;;;5.13;3.65;;;;;;;;;;5053172;28;20240;-80
2021/11/23 05:17:27;;;;;;;5.13;4.25;;;;;;;;;;5052824;28;20249;-81
2021/11/23 05:19:54;;;;;;;4.72;4.32;;;;;;;;;;5052425;28;20240;-80
2021/11/23 05:22:22;;;;;;;3.72;3.25;;;;;;;;;;5053265;28;20217;-80
2021/11/23 05:24:50;;;;;;;3.42;3.13;;;;;;;;;;5052642;28;20320;-80
2021/11/23 05:27:17;;;;;;;3.38;3.08;;;;;;;;;;5052449;28;20292;-80
2021/11/23 05:29:45;;;;;;;3.53;3.25;;;;;;;;;;5052810;28;20201;-80
2021/11/23 05:32:14;;;;;;;3.10;2.80;;;;;;;;;;5059320;28;20264;-81
2021/11/23 05:34:41;;;;;;;3.47;3.17;;;;;;;;;;5059622;28;20280;-80
2021/11/23 05:37:09;;;;;;;3.97;3.47;;;;;;;;;;5059431;28;20746;-80
2021/11/23 05:39:37;;;;;;;3.72;3.05;;;;;;;;;;5059560;28;20709;-79
2021/11/23 05:42:05;;;;;;;6.20;3.78;;;;;;;;;;5040043;28;20302;-80
2021/11/23 05:44:33;;;;;;;3.22;3.03;;;;;;;;;;5049816;28;20260;-80
2021/11/23 05:47:01;;;;;;;3.63;3.30;;;;;;;;;;5059606;28;20272;-80
2021/11/23 05:49:30;;;;;;;3.35;3.13;;;;;;;;;;5059461;28;20212;-80
2021/11/23 05:51:59;;;;;;;4.35;3.95;;;;;;;;;;5059558;28;20284;-80
2021/11/23 05:54:26;;;;;;;5.43;4.00;;;;;;;;;;5060184;28;20188;-80
2021/11/23 05:56:54;;;;;;;3.45;3.00;;;;;;;;;;5059251;28;20217;-80
2021/11/23 05:59:22;;;;;;;3.90;3.50;;;;;;;;;;5059829;28;20292;-80
2021/11/23 06:01:49;;;;;;;6.57;4.35;;;;;;;;;;5059523;28;20288;-80
2021/11/23 06:04:17;;;;;;;2.90;2.70;;;;;;;;;;5059591;28;20754;-80
2021/11/23 06:06:46;;;;;;;3.22;3.00;;;;;;;;;;5059022;28;20245;-80
2021/11/23 06:09:14;;;;;;;3.95;3.65;;;;;;;;;;5058986;28;20197;-81
2021/11/23 06:11:41;;;;;;;3.67;3.38;;;;;;;;;;5059147;28;20224;-79
2021/11/23 06:14:09;;;;;;;2.45;2.30;;;;;;;;;;5059440;28;20319;-81
2021/11/23 06:16:38;;;;;;;3.30;3.00;;;;;;;;;;5059142;28;20265;-81
2021/11/23 06:19:05;;;;;;;4.03;3.60;;;;;;;;;;5058801;28;20199;-80
2021/11/23 06:21:33;;;;;;;3.40;3.08;;;;;;;;;;5058064;28;20284;-80
2021/11/23 06:24:02;;;;;;;2.95;2.65;;;;;;;;;;5059180;28;20251;-81
2021/11/23 06:26:30;;;;;;;4.18;3.15;;;;;;;;;;5058899;28;20229;-81
2021/11/23 06:28:58;;;;;;;2.90;2.70;;;;;;;;;;5059102;28;20198;-80
2021/11/23 06:31:26;;;;;;;3.10;2.80;;;;;;;;;;5059170;28;20237;-80
2021/11/23 06:33:54;;;;;;;2.53;2.30;;;;;;;;;;5058907;28;20288;-79
2021/11/23 06:36:22;;;;;;;2.70;2.50;;;;;;;;;;5059270;28;20189;-81
2021/11/23 06:38:51;;;;;;;5.18;3.80;;;;;;;;;;5059342;28;20189;-80
2021/11/23 06:41:20;;;;;;;2.72;2.53;;;;;;;;;;5058911;28;20560;-80
2021/11/23 06:43:47;;;;;;;3.38;3.05;;;;;;;;;;5055083;28;20718;-79
2021/11/23 06:46:15;;;;;;;4.20;3.72;;;;;;;;;;5055768;28;20689;-81
2021/11/23 06:48:43;;;;;;;4.25;3.92;;;;;;;;;;5055479;28;20730;-80
2021/11/23 06:51:10;;;;;;;4.40;4.00;;;;;;;;;;5056253;28;20240;-80
2021/11/23 06:53:38;;;;;;;3.75;3.55;;;;;;;;;;5055509;28;20655;-79
2021/11/23 06:56:06;;;;;;;3.15;2.95;;;;;;;;;;5055925;28;20654;-79
2021/11/23 06:58:36;;;;;;;2.92;2.72;;;;;;;;;;5056420;28;20277;-80
2021/11/23 07:01:03;;;;;;;5.13;3.90;;;;;;;;;;5055792;28;20197;-81
2021/11/23 07:03:31;;;;;;;4.30;3.97;;;;;;;;;;5055957;28;20292;-80
2021/11/23 07:05:58;;;;;;;4.53;4.07;;;;;;;;;;5055742;28;20316;-80
2021/11/23 07:08:27;;;;;;;4.78;4.15;;;;;;;;;;5055244;28;20261;-79
2021/11/23 07:10:55;;;;;;;4.50;4.00;;;;;;;;;;5055517;28;20221;-81
2021/11/23 07:13:22;;;;;;;5.47;4.55;;;;;;;;;;5054925;28;20699;-81
2021/11/23 07:15:53;;;;;;;4.55;4.13;;;;;;;;;;5055595;28;20603;-81
2021/11/23 07:18:20;;;;;;;5.05;4.65;;;;;;;;;;5055564;28;20228;-83
2021/11/23 07:20:48;;;;;;;4.00;3.60;;;;;;;;;;5055545;28;20624;-80
2021/11/23 07:23:16;;;;;;;3.85;3.50;;;;;;;;;;5055453;28;20189;-81
2021/11/23 07:25:44;;;;;;;4.22;3.83;;;;;;;;;;5055291;28;20300;-81
2021/11/23 07:28:11;;;;;;;3.65;3.35;;;;;;;;;;5054842;28;20275;-81
2021/11/23 07:30:39;;;;;;;4.43;4.03;;;;;;;;;;5055673;28;20636;-80
2021/11/23 07:33:08;;;;;;;4.97;3.50;;;;;;;;;;5055497;28;20213;-81
2021/11/23 07:35:36;;;;;;;3.05;2.85;;;;;;;;;;5055567;28;20228;-82
2021/11/23 07:38:04;;;;;;;4.70;3.25;;;;;;;;;;5054759;28;20260;-80
2021/11/23 07:40:31;;;;;;;3.15;2.95;;;;;;;;;;5055762;28;20182;-82
2021/11/23 07:42:59;;;;;;;6.40;3.42;;;;;;;;;;5055030;28;20667;-82
2021/11/23 07:45:27;;;;;;;3.47;3.15;;;;;;;;;;5055498;28;20330;-81
2021/11/23 07:47:55;;;;;;;3.53;2.97;;;;;;;;;;5054295;28;20268;-81
2021/11/23 07:50:24;;;;;;;7.40;3.35;;;;;;;;;;5054551;28;20261;-81
2021/11/23 07:52:52;;;;;;;3.15;2.85;;;;;;;;;;5054477;28;20661;-82
2021/11/23 07:55:19;;;;;;;3.08;2.85;;;;;;;;;;5054379;28;20236;-83
2021/11/23 07:57:47;;;;;;;2.80;2.58;;;;;;;;;;5054645;28;20668;-82
2021/11/23 08:00:16;;;;;;;3.85;3.55;;;;;;;;;;5055522;28;20213;-81
2021/11/23 08:02:43;;;;;;;3.95;3.65;;;;;;;;;;5053313;28;20243;-82
2021/11/23 08:05:11;;;;;;;3.60;3.30;;;;;;;;;;5054542;28;20222;-82
2021/11/23 08:07:40;;;;;;;4.65;3.88;;;;;;;;;;5054996;28;20253;-82
2021/11/23 08:10:09;;;;;;;4.65;4.20;;;;;;;;;;5055025;28;20224;-81
2021/11/23 08:12:37;;;;;;;6.60;6.00;;;;;;;;;;5054681;28;20308;-82
2021/11/23 08:15:06;;;;;;;8.93;8.02;;;;;;;;;;5055759;28;20235;-82
2021/11/23 08:17:34;;;;;;;6.30;5.82;;;;;;;;;;5056317;28;20224;-81
2021/11/23 08:20:01;;;;;;;3.55;3.25;;;;;;;;;;5054613;28;20259;-81
2021/11/23 08:22:29;;;;;;;4.60;3.88;;;;;;;;;;5054597;28;20217;-81
2021/11/23 08:24:58;;;;;;;4.38;3.85;;;;;;;;;;5054136;28;20271;-82
2021/11/23 08:27:26;;;;;;;5.22;4.30;;;;;;;;;;5053194;28;20268;-81
2021/11/23 08:29:54;;;;;;;3.72;3.45;;;;;;;;;;5053461;28;20257;-82
2021/11/23 08:32:21;;;;;;;4.10;3.80;;;;;;;;;;5052428;28;20255;-83
2021/11/23 08:34:49;;;;;;;4.20;3.55;;;;;;;;;;5053602;28;20225;-82
2021/11/23 08:37:17;;;;;;;4.03;3.63;;;;;;;;;;5053422;28;20216;-83
2021/11/23 08:39:45;;;;;;;5.22;4.20;;;;;;;;;;5053689;28;20260;-82
2021/11/23 08:42:18;;;;;;;8.70;4.80;;;;;;;;;;5054143;28;20679;-81
2021/11/23 08:44:45;;;;;;;3.60;3.30;;;;;;;;;;5054287;28;20186;-82
2021/11/23 08:47:13;;;;;;;4.93;4.35;;;;;;;;;;5070803;28;20252;-82
2021/11/23 08:49:40;;;;;;;4.00;3.63;;;;;;;;;;5072616;28;20576;-82
2021/11/23 08:52:09;;;;;;;6.13;5.20;;;;;;;;;;5053854;28;20643;-82
2021/11/23 08:54:37;;;;;;;4.72;3.80;;;;;;;;;;5053652;28;20237;-82
2021/11/23 08:57:08;;;;;;;5.93;5.32;;;;;;;;;;5045230;28;20253;-82
2021/11/23 08:59:41;;;;;;;6.47;5.65;;;;;;;;;;5040526;28;20190;-83
2021/11/23 09:02:10;;;;;;;5.90;4.88;;;;;;;;;;5053399;28;20380;-82
2021/11/23 09:04:38;;;;;;;4.85;4.43;;;;;;;;;;5055546;28;20206;-82
2021/11/23 09:07:08;;;;;;;6.18;5.43;;;;;;;;;;5054251;28;20257;-82
2021/11/23 09:09:38;;;;;;;5.35;4.85;;;;;;;;;;5054850;28;20721;-83
2021/11/23 09:12:06;;;;;;;4.60;4.20;;;;;;;;;;5050050;28;20186;-82
2021/11/23 09:14:38;;;;;;;4.95;4.55;;;;;;;;;;5055126;28;20269;-82
2021/11/23 09:17:07;;;;;;;6.53;5.20;;;;;;;;;;5052644;28;20687;-82
2021/11/23 09:19:36;;;;;;;8.60;6.65;;;;;;;;;;5054862;28;20224;-82
2021/11/23 09:22:04;;;;;;;5.60;5.03;;;;;;;;;;5055820;28;20269;-82
2021/11/23 09:24:32;;;;;;;7.18;4.70;;;;;;;;;;5055972;28;20218;-82
2021/11/23 09:27:00;;;;;;;4.22;3.83;;;;;;;;;;5056408;28;20253;-81
2021/11/23 09:29:28;;;;;;;5.25;4.75;;;;;;;;;;5056105;28;20233;-82
2021/11/23 09:31:58;;;;;;;3.88;3.58;;;;;;;;;;5054989;28;20220;-82
2021/11/23 09:34:26;;;;;;;6.60;4.35;;;;;;;;;;5054730;28;20205;-81
2021/11/23 09:36:55;;;;;;;5.45;4.78;;;;;;;;;;5054473;28;20224;-81
2021/11/23 09:39:22;;;;;;;4.60;4.20;;;;;;;;;;5054293;28;20190;-81
2021/11/23 09:41:51;;;;;;;5.32;4.82;;;;;;;;;;5054395;28;20276;-82
2021/11/23 09:44:19;;;;;;;5.70;4.93;;;;;;;;;;5066288;28;20697;-82
2021/11/23 09:46:47;;;;;;;5.18;4.70;;;;;;;;;;5058329;28;20692;-82
2021/11/23 09:49:16;;;;;;;5.53;4.93;;;;;;;;;;5053864;28;20225;-82
2021/11/23 09:51:44;;;;;;;4.75;4.35;;;;;;;;;;5054402;28;20687;-82
2021/11/23 09:54:12;;;;;;;6.63;5.88;;;;;;;;;;5054105;28;20228;-80
2021/11/23 09:56:43;;;;;;;5.20;4.78;;;;;;;;;;5053493;28;20257;-80
2021/11/23 09:59:11;;;;;;;5.88;5.30;;;;;;;;;;5054426;28;20194;-81
2021/11/23 10:01:50;;;;;;;4.70;4.28;;;;;;;;;;5054081;28;20277;-81
2021/11/23 10:04:21;;;;;;;4.43;4.13;;;;;;;;;;5054312;28;20617;-82
2021/11/23 10:06:58;;;;;;;4.30;3.90;;;;;;;;;;5054398;28;20265;-81
2021/11/23 10:09:37;;;;;;;6.15;5.55;;;;;;;;;;5053879;28;20217;-82
2021/11/23 10:12:20;;;;;;;5.32;4.60;;;;;;;;;;5054182;28;20222;-82
2021/11/23 10:15:14;;;;;;;5.20;4.80;;;;;;;;;;5038244;28;20255;-82
2021/11/23 10:17:44;;;;;;;4.68;4.30;;;;;;;;;;5054434;28;20214;-83
2021/11/23 10:20:32;;;;;;;4.72;4.22;;;;;;;;;;5057840;28;20647;-83
2021/11/23 10:23:18;;;;;;;4.93;4.47;;;;;;;;;;5057512;28;20613;-82
2021/11/23 10:25:50;;;;;;;5.55;4.50;;;;;;;;;;5057502;28;20247;-83
2021/11/23 10:28:18;;;;;;;4.93;4.53;;;;;;;;;;5057591;28;20597;-83
2021/11/23 10:30:47;;;;;;;5.95;5.32;;;;;;;;;;5057102;28;20690;-82
2021/11/23 10:33:16;;;;;;;4.63;4.22;;;;;;;;;;5057516;28;20214;-83
2021/11/23 10:35:48;;;;;;;7.82;6.75;;;;;;;;;;5051870;28;20213;-82
2021/11/23 10:38:15;;;;;;;5.35;4.85;;;;;;;;;;5057174;28;20651;-82
2021/11/23 10:40:47;;;;;;;4.93;4.43;;;;;;;;;;5056454;28;20221;-82
2021/11/23 10:43:16;;;;;;;4.80;4.40;;;;;;;;;;5056927;28;20240;-82
2021/11/23 10:45:46;;;;;;;5.93;4.97;;;;;;;;;;5056321;28;20217;-82
2021/11/23 10:48:16;;;;;;;5.03;4.50;;;;;;;;;;5056088;28;20229;-82
2021/11/23 10:51:03;;;;;;;6.03;5.43;;;;;;;;;;5056887;28;20201;-82
2021/11/23 10:53:32;;;;;;;7.20;5.85;;;;;;;;;;5056846;28;20190;-83
2021/11/23 10:56:09;;;;;;;7.90;7.13;;;;;;;;;;5056204;28;20233;-82
2021/11/23 10:58:37;;;;;;;6.68;6.00;;;;;;;;;;5048928;28;20213;-84
2021/11/23 11:01:06;;;;;;;6.15;5.50;;;;;;;;;;5056514;28;20214;-82
2021/11/23 11:03:35;;;;;;;4.93;4.47;;;;;;;;;;5048387;28;20190;-83
2021/11/23 11:06:06;;;;;;;5.35;4.80;;;;;;;;;;5056751;28;20208;-82
2021/11/23 11:08:37;;;;;;;6.07;5.47;;;;;;;;;;5037048;28;20234;-83
2021/11/23 11:11:07;;;;;;;6.10;5.43;;;;;;;;;;5037210;28;20608;-83
2021/11/23 11:13:36;;;;;;;4.05;3.70;;;;;;;;;;5054387;28;20617;-82
2021/11/23 11:16:05;;;;;;;6.40;4.95;;;;;;;;;;5056226;28;20655;-83
2021/11/23 11:18:33;;;;;;;4.72;4.22;;;;;;;;;;5056617;28;20214;-83
2021/11/23 11:21:05;;;;;;;3.47;3.20;;;;;;;;;;5056428;28;20663;-82
2021/11/23 11:23:38;;;;;;;5.00;4.63;;;;;;;;;;5056605;28;20594;-83
2021/11/23 11:26:20;;;;;;;5.25;4.85;;;;;;;;;;5054653;28;20251;-82
2021/11/23 12:45:42;;;;;;;4.28;3.97;;;;;;;;;;5417393;23;20236;-85
2021/11/23 12:48:11;;;;;;;4.03;3.63;;;;;;;;;;4974955;28;20232;-84
2021/11/23 12:50:40;;;;;;;2.97;2.63;;;;;;;;;;4967460;28;20268;-84
2021/11/23 12:53:11;;;;;;;2.17;2.08;;;;;;;;;;4975251;28;20604;-84
2021/11/23 12:55:39;;;;;;;4.00;3.55;;;;;;;;;;4975431;28;20726;-83
2021/11/23 12:58:07;;;;;;;4.72;2.85;;;;;;;;;;4958729;28;20229;-83
2021/11/23 13:00:38;;;;;;;2.83;2.53;;;;;;;;;;4955977;29;20233;-83
2021/11/23 13:03:10;;;;;;;3.30;2.95;;;;;;;;;;4956279;29;20224;-84
2021/11/23 13:05:40;;;;;;;4.50;4.15;;;;;;;;;;4972270;23;20291;-81
2021/11/23 13:08:09;;;;;;;4.88;4.45;;;;;;;;;;4965562;28;20476;-81
2021/11/23 13:10:39;;;;;;;3.45;3.15;;;;;;;;;;4977638;28;20642;-81
2021/11/23 13:13:10;;;;;;;3.42;3.20;;;;;;;;;;4978025;28;20181;-82
2021/11/23 13:15:40;;;;;;;2.95;2.60;;;;;;;;;;4978338;28;20275;-80
2021/11/23 13:18:11;;;;;;;3.72;3.42;;;;;;;;;;4977966;28;20181;-81
2021/11/23 13:20:43;;;;;;;3.70;3.28;;;;;;;;;;4978760;28;20196;-82
2021/11/23 13:23:21;;;;;;;4.55;4.00;;;;;;;;;;4960417;28;20208;-81
2021/11/23 13:25:51;;;;;;;3.70;3.40;;;;;;;;;;4959455;29;20252;-82
2021/11/23 13:28:23;;;;;;;3.60;3.33;;;;;;;;;;4959645;29;20221;-82
2021/11/23 13:30:55;;;;;;;4.18;3.78;;;;;;;;;;4970008;28;20212;-82
2021/11/23 13:33:33;;;;;;;4.88;4.43;;;;;;;;;;4959022;29;20205;-81
2021/11/23 13:36:10;;;;;;;3.90;3.60;;;;;;;;;;4959952;29;20288;-81
2021/11/23 13:38:48;;;;;;;4.60;3.58;;;;;;;;;;4951887;29;20647;-81
2021/11/23 13:41:30;;;;;;;3.22;2.92;;;;;;;;;;4958354;29;20656;-81
2021/11/23 13:44:03;;;;;;;3.33;3.03;;;;;;;;;;4958338;28;20201;-80
2021/11/23 13:46:46;;;;;;;2.95;2.70;;;;;;;;;;4959044;28;20227;-82
2021/11/23 13:49:24;;;;;;;3.63;3.08;;;;;;;;;;4958468;29;20244;-82
2021/11/23 13:52:10;;;;;;;2.83;2.10;;;;;;;;;;4959101;28;20264;-81
2021/11/23 13:54:43;;;;;;;2.63;2.42;;;;;;;;;;4961681;29;20224;-81
2021/11/23 13:57:15;;;;;;;2.83;2.63;;;;;;;;;;4961557;28;20341;-81
2021/11/23 13:59:53;;;;;;;2.83;2.60;;;;;;;;;;4978504;28;20654;-81
2021/11/23 14:02:21;;;;;;;2.85;2.65;;;;;;;;;;4981854;28;20223;-81
2021/11/23 14:04:51;;;;;;;4.95;3.50;;;;;;;;;;4981225;28;20622;-81
2021/11/23 14:07:22;;;;;;;3.53;3.22;;;;;;;;;;4981697;28;20240;-81
2021/11/23 14:10:06;;;;;;;3.55;3.25;;;;;;;;;;4981192;28;20239;-81
2021/11/23 14:12:37;;;;;;;5.05;3.75;;;;;;;;;;4981182;28;20189;-81
2021/11/23 14:15:22;;;;;;;4.65;3.42;;;;;;;;;;4980924;28;20271;-81
2021/11/23 14:18:21;;;;;;;5.07;4.43;;;;;;;;;;4969100;28;20201;-79
2021/11/23 14:21:01;;;;;;;3.80;3.47;;;;;;;;;;4950881;29;20233;-80
2021/11/23 14:23:34;;;;;;;3.55;3.25;;;;;;;;;;4963350;29;20205;-80
2021/11/23 14:26:16;;;;;;;4.28;3.97;;;;;;;;;;4962820;28;20253;-81
2021/11/23 14:28:48;;;;;;;4.10;3.80;;;;;;;;;;4962096;29;20270;-81
2021/11/23 14:31:18;;;;;;;3.78;3.22;;;;;;;;;;4962544;29;20278;-80
2021/11/23 14:33:46;;;;;;;4.13;3.72;;;;;;;;;;4962431;29;20189;-81
2021/11/23 14:36:26;;;;;;;2.85;2.65;;;;;;;;;;4961579;28;20265;-80
2021/11/23 14:38:54;;;;;;;3.33;3.03;;;;;;;;;;4961327;29;20361;-80
2021/11/23 14:41:21;;;;;;;4.03;3.63;;;;;;;;;;4961479;29;20233;-80
2021/11/23 14:43:49;;;;;;;3.75;3.40;;;;;;;;;;4962089;29;20197;-80
2021/11/23 14:46:17;;;;;;;3.20;3.00;;;;;;;;;;4961380;28;20225;-80
2021/11/23 14:48:45;;;;;;;4.30;3.88;;;;;;;;;;4977866;28;20236;-80
2021/11/23 14:51:12;;;;;;;3.53;3.22;;;;;;;;;;4967074;28;20240;-80
2021/11/23 14:53:42;;;;;;;3.75;3.45;;;;;;;;;;4966765;28;20244;-80
2021/11/23 14:56:09;;;;;;;3.50;3.20;;;;;;;;;;4981049;28;20216;-81
2021/11/23 14:58:37;;;;;;;3.38;3.17;;;;;;;;;;4979578;28;20235;-80
2021/11/23 15:01:06;;;;;;;2.75;2.55;;;;;;;;;;4981007;28;20204;-80
2021/11/23 15:03:33;;;;;;;3.38;3.13;;;;;;;;;;4979983;28;20228;-80
2021/11/23 15:06:01;;;;;;;2.70;2.50;;;;;;;;;;4973879;28;20272;-80
2021/11/23 15:08:29;;;;;;;2.20;2.03;;;;;;;;;;4960372;29;20675;-80
2021/11/23 15:10:58;;;;;;;3.03;2.83;;;;;;;;;;4961089;29;20248;-81
2021/11/23 15:13:26;;;;;;;3.15;2.85;;;;;;;;;;4961578;29;20232;-81
2021/11/23 15:15:54;;;;;;;2.50;2.30;;;;;;;;;;4960864;28;20279;-80
2021/11/23 15:18:22;;;;;;;3.50;3.20;;;;;;;;;;4960640;29;20205;-81
2021/11/23 15:20:50;;;;;;;3.63;3.33;;;;;;;;;;4961295;29;20202;-80
2021/11/23 15:23:18;;;;;;;3.70;3.40;;;;;;;;;;4961880;29;20193;-80
2021/11/23 15:25:46;;;;;;;3.65;3.35;;;;;;;;;;4960407;28;20642;-81
2021/11/23 15:28:16;;;;;;;5.28;4.55;;;;;;;;;;4960696;29;20224;-81
2021/11/23 15:30:50;;;;;;;6.93;4.70;;;;;;;;;;4961164;29;20263;-81
2021/11/23 15:33:18;;;;;;;6.03;5.00;;;;;;;;;;4961609;29;20252;-81
2021/11/23 15:35:46;;;;;;;7.22;4.63;;;;;;;;;;4960580;28;20263;-81
2021/11/23 15:38:14;;;;;;;4.40;3.03;;;;;;;;;;4960703;29;20223;-81
2021/11/23 15:40:42;;;;;;;4.15;3.75;;;;;;;;;;4961074;29;20220;-81
2021/11/23 15:43:09;;;;;;;4.10;3.80;;;;;;;;;;4961514;29;20204;-81
2021/11/23 15:45:38;;;;;;;4.30;3.80;;;;;;;;;;4962314;28;20703;-81
2021/11/23 15:48:06;;;;;;;4.63;4.22;;;;;;;;;;4964842;29;20225;-78
2021/11/23 15:50:34;;;;;;;5.80;5.10;;;;;;;;;;4963431;29;20205;-80
2021/11/23 15:53:04;;;;;;;4.40;4.00;;;;;;;;;;4964302;29;20209;-81
2021/11/23 15:55:33;;;;;;;5.50;5.00;;;;;;;;;;4964323;28;20232;-80
2021/11/23 15:58:01;;;;;;;6.80;5.25;;;;;;;;;;4965848;29;20207;-78
2021/11/23 16:00:29;;;;;;;5.63;5.07;;;;;;;;;;4964679;29;20201;-79
2021/11/23 16:02:59;;;;;;;5.93;4.97;;;;;;;;;;4965181;29;20232;-79
2021/11/23 16:05:26;;;;;;;6.18;5.55;;;;;;;;;;4964900;28;20288;-79
2021/11/23 16:07:54;;;;;;;7.47;6.78;;;;;;;;;;4964372;29;20703;-79
2021/11/23 16:10:22;;;;;;;5.97;5.47;;;;;;;;;;4964557;29;20239;-80
2021/11/23 16:12:49;;;;;;;6.20;5.60;;;;;;;;;;4962070;29;20232;-80